Time;durP1;ratioP1;P1;durP2;ratioP2;P2;SDS_P1;SDS_P2;PMS_P1;PMS_P2;Temp;Humidity;BMP_temperature;BMP_pressure;BME280_temperature;BME280_humidity;BME280_pressure;Samples;Min_cycle;Max_cycle;Signal;HPM_P1;HPM_P2
2023/03/05 00:01:09;;;;;;;22.80;5.90;;;;;;;4.16;65.33;98495.51;67568;1282;1019343;-60
2023/03/05 00:04:11;;;;;;;26.10;5.90;;;;;;;3.74;66.41;98499.59;67527;1282;1016432;-60
2023/03/05 00:07:14;;;;;;;27.50;5.70;;;;;;;3.76;64.74;98506.59;67534;1281;1016311;-59
2023/03/05 00:10:16;;;;;;;21.90;5.50;;;;;;;3.71;64.13;98507.83;67570;1281;1016292;-60
2023/03/05 00:13:18;;;;;;;25.90;5.70;;;;;;;3.67;64.48;98503.98;67602;1281;1016586;-60
2023/03/05 00:16:21;;;;;;;22.60;5.40;;;;;;;3.70;64.51;98503.00;67586;1282;1017995;-59
2023/03/05 00:19:23;;;;;;;21.90;5.40;;;;;;;3.72;64.30;98503.45;67526;1281;1016407;-60
2023/03/05 00:22:26;;;;;;;18.80;4.60;;;;;;;3.54;63.47;98499.77;67532;1282;1016297;-60
2023/03/05 00:25:28;;;;;;;21.20;5.00;;;;;;;3.37;62.61;98497.65;67594;1281;1017656;-60
2023/03/05 00:28:30;;;;;;;22.50;4.50;;;;;;;3.30;62.30;98494.30;67599;1282;1017655;-59
2023/03/05 00:31:33;;;;;;;22.10;4.70;;;;;;;3.36;61.38;98495.45;67584;1282;1016447;-60
2023/03/05 00:34:36;;;;;;;21.20;4.60;;;;;;;3.35;61.24;98495.99;67558;1281;1016635;-59
2023/03/05 00:37:38;;;;;;;20.00;4.70;;;;;;;3.30;61.58;98492.59;67587;1281;1016237;-60
2023/03/05 00:40:41;;;;;;;20.30;4.50;;;;;;;3.40;60.53;98492.20;67597;1281;1016330;-59
2023/03/05 00:43:43;;;;;;;21.20;4.50;;;;;;;3.42;60.86;98494.86;67607;1281;1016403;-59
2023/03/05 00:46:46;;;;;;;18.50;4.30;;;;;;;3.46;61.56;98488.34;67526;1259;1016083;-59
2023/03/05 00:49:48;;;;;;;21.30;5.20;;;;;;;3.53;61.58;98490.15;67541;1281;1016505;-59
2023/03/05 00:52:51;;;;;;;22.20;4.80;;;;;;;3.50;62.04;98490.77;67568;1281;1016406;-60
2023/03/05 00:55:53;;;;;;;22.10;5.20;;;;;;;3.46;62.67;98479.33;67595;1281;1016417;-59
2023/03/05 00:58:55;;;;;;;22.70;5.40;;;;;;;3.36;62.74;98485.61;67572;1282;1016400;-59
2023/03/05 01:01:58;;;;;;;;;;;;;;;3.40;63.03;98476.98;67575;1281;1018942;-59
2023/03/05 01:05:00;;;;;;;23.00;5.40;;;;;;;3.55;61.98;98479.20;67592;1281;1017212;-60
2023/03/05 01:08:03;;;;;;;24.20;5.60;;;;;;;3.61;61.89;98471.20;67582;1281;1016445;-59
2023/03/05 01:11:05;;;;;;;23.70;5.80;;;;;;;3.69;61.42;98468.60;67612;1281;1016271;-60
2023/03/05 01:14:08;;;;;;;20.70;5.20;;;;;;;3.75;61.49;98470.98;67534;1281;1016274;-60
2023/03/05 01:17:10;;;;;;;25.50;5.30;;;;;;;3.81;61.34;98460.73;67539;1282;1017090;-59
2023/03/05 01:20:13;;;;;;;22.10;5.50;;;;;;;3.83;61.60;98465.67;67530;1282;1016549;-59
2023/03/05 01:23:15;;;;;;;22.30;5.20;;;;;;;3.44;62.57;98461.27;67566;1282;1016386;-59
2023/03/05 01:26:17;;;;;;;21.50;5.40;;;;;;;3.47;62.22;98463.21;67585;1281;1016375;-60
2023/03/05 01:29:20;;;;;;;25.40;5.40;;;;;;;3.55;61.61;98466.05;67575;1281;1016474;-59
2023/03/05 01:32:22;;;;;;;22.30;5.10;;;;;;;3.56;61.19;98462.56;67562;1282;1016435;-59
2023/03/05 01:35:25;;;;;;;21.40;4.70;;;;;;;3.56;61.46;98461.70;67577;1282;1016289;-60
2023/03/05 01:38:28;;;;;;;19.90;4.70;;;;;;;3.55;61.05;98456.89;67593;1281;1016466;-60
2023/03/05 01:41:30;;;;;;;22.50;5.30;;;;;;;3.55;61.77;98457.40;67569;1281;1016419;-59
2023/03/05 01:44:32;;;;;;;22.60;4.60;;;;;;;3.66;61.69;98454.57;67541;1282;1015786;-60
2023/03/05 01:47:35;;;;;;;21.20;4.60;;;;;;;3.64;59.85;98448.56;67574;1282;1016542;-60
2023/03/05 01:50:37;;;;;;;21.70;4.30;;;;;;;3.51;59.63;98447.85;67601;1282;1016478;-60
2023/03/05 01:53:40;;;;;;;23.10;5.00;;;;;;;3.35;59.79;98447.45;67615;1282;1016422;-59
2023/03/05 01:56:42;;;;;;;18.30;4.50;;;;;;;3.53;59.97;98444.35;67569;1282;1016398;-59
2023/03/05 01:59:44;;;;;;;23.00;4.30;;;;;;;3.41;60.21;98439.77;67556;1282;1016315;-59
2023/03/05 02:02:47;;;;;;;20.60;4.50;;;;;;;3.41;60.17;98439.44;67567;1281;1016168;-60
2023/03/05 02:05:49;;;;;;;21.40;4.60;;;;;;;3.34;60.19;98435.89;67595;1281;1015768;-59
2023/03/05 02:08:52;;;;;;;20.80;4.30;;;;;;;3.28;59.10;98431.28;67604;1281;1016431;-60
2023/03/05 02:11:54;;;;;;;18.60;3.90;;;;;;;3.29;59.00;98429.86;67585;1282;1016287;-60
2023/03/05 02:14:58;;;;;;;17.70;4.00;;;;;;;3.23;58.76;98431.61;67563;1282;1016179;-60
2023/03/05 02:18:00;;;;;;;23.10;4.00;;;;;;;3.27;58.97;98427.84;67591;1281;1016393;-60
2023/03/05 02:21:03;;;;;;;22.80;4.30;;;;;;;3.33;58.81;98429.38;67554;1282;1016426;-60
2023/03/05 02:24:05;;;;;;;22.00;4.30;;;;;;;3.38;58.55;98422.80;67538;1282;1016434;-59
2023/03/05 02:27:08;;;;;;;21.10;4.50;;;;;;;3.51;58.92;98423.14;67627;1282;1016226;-60
2023/03/05 02:30:11;;;;;;;33.10;10.60;;;;;;;3.64;59.16;98414.67;67603;1282;1016431;-59
2023/03/05 02:33:14;;;;;;;34.00;8.30;;;;;;;3.81;59.43;98412.29;67535;1281;1016463;-59
2023/03/05 02:36:16;;;;;;;33.70;8.80;;;;;;;3.91;58.80;98412.25;67571;1281;1016434;-60
2023/03/05 02:39:18;;;;;;;30.60;8.50;;;;;;;3.92;57.88;98413.77;67578;1281;1016302;-60
2023/03/05 02:42:21;;;;;;;27.20;8.10;;;;;;;3.89;57.99;98412.49;67572;1282;1016419;-59
2023/03/05 02:45:23;;;;;;;29.00;9.00;;;;;;;3.79;57.83;98412.89;67546;1282;1016410;-59
2023/03/05 02:48:26;;;;;;;28.20;9.90;;;;;;;3.78;58.57;98411.54;67538;1281;1016472;-60
2023/03/05 02:51:28;;;;;;;25.40;7.00;;;;;;;3.82;57.59;98412.93;67588;1282;1016280;-60
2023/03/05 02:54:31;;;;;;;20.50;5.30;;;;;;;3.96;57.75;98406.50;67590;1270;1016426;-59
2023/03/05 02:57:33;;;;;;;23.00;5.40;;;;;;;3.89;56.98;98411.10;67581;1282;1016384;-60
2023/03/05 03:00:35;;;;;;;21.30;4.10;;;;;;;3.87;56.58;98407.05;67527;1282;1016437;-59
2023/03/05 03:03:38;;;;;;;16.60;4.00;;;;;;;3.94;56.93;98404.16;67540;1282;1016076;-60
2023/03/05 03:06:40;;;;;;;21.20;4.10;;;;;;;3.99;56.32;98404.66;67588;1282;1017021;-59
2023/03/05 03:09:43;;;;;;;20.70;4.10;;;;;;;4.05;56.26;98406.30;67605;1282;1016429;-59
2023/03/05 03:12:45;;;;;;;22.40;4.70;;;;;;;4.04;56.20;98402.20;67621;1282;1016224;-60
2023/03/05 03:15:47;;;;;;;22.20;6.00;;;;;;;3.96;56.73;98399.75;67547;1282;1016052;-60
2023/03/05 03:18:50;;;;;;;22.50;6.10;;;;;;;3.84;57.27;98395.92;67527;1282;1016845;-59
2023/03/05 03:21:53;;;;;;;22.40;6.10;;;;;;;3.77;57.66;98395.34;67531;1282;1016159;-60
2023/03/05 03:24:56;;;;;;;26.70;6.20;;;;;;;3.85;56.58;98396.89;67536;1282;1016826;-59
2023/03/05 03:27:58;;;;;;;20.30;5.30;;;;;;;3.93;56.20;98395.56;67556;1282;1016521;-59
2023/03/05 03:31:01;;;;;;;25.60;5.90;;;;;;;3.84;56.79;98390.36;67581;1282;1016295;-59
2023/03/05 03:34:03;;;;;;;22.20;5.10;;;;;;;3.97;57.08;98387.94;67568;1281;1016520;-59
2023/03/05 03:37:06;;;;;;;23.00;5.10;;;;;;;3.88;56.95;98381.57;67526;1282;1017903;-60
2023/03/05 03:40:08;;;;;;;22.30;4.80;;;;;;;3.74;57.15;98377.11;67516;1282;1016230;-59
2023/03/05 03:43:11;;;;;;;16.20;4.10;;;;;;;3.75;57.67;98373.27;67542;1281;1016464;-60
2023/03/05 03:46:13;;;;;;;19.30;4.60;;;;;;;3.76;57.52;98365.80;67555;1281;1016745;-59
2023/03/05 03:49:15;;;;;;;22.30;4.60;;;;;;;3.85;57.22;98360.40;67567;1282;1016497;-59
2023/03/05 03:52:18;;;;;;;21.70;4.90;;;;;;;4.00;56.52;98360.50;67571;1281;1016984;-59
2023/03/05 03:55:20;;;;;;;24.70;4.80;;;;;;;4.08;55.94;98352.23;67537;1282;1016276;-60
2023/03/05 03:58:23;;;;;;;21.90;4.80;;;;;;;4.08;55.89;98345.98;67560;1282;1016257;-60
2023/03/05 04:01:25;;;;;;;24.60;4.50;;;;;;;4.11;55.44;98349.85;67573;1282;1018024;-59
2023/03/05 04:04:29;;;;;;;19.40;4.00;;;;;;;4.07;55.04;98348.11;67606;1281;1016501;-60
2023/03/05 04:07:31;;;;;;;21.20;4.20;;;;;;;4.08;54.64;98347.87;67585;1281;1017020;-60
2023/03/05 04:10:34;;;;;;;18.20;4.00;;;;;;;4.09;55.06;98343.01;67614;1281;1016374;-59
2023/03/05 04:13:36;;;;;;;19.60;4.20;;;;;;;4.06;55.27;98340.00;67574;1282;1016529;-60
2023/03/05 04:16:38;;;;;;;22.00;4.20;;;;;;;4.16;55.34;98334.89;67560;1282;1016227;-60
2023/03/05 04:19:41;;;;;;;22.30;4.70;;;;;;;4.36;54.94;98335.79;67522;1281;1016172;-60
2023/03/05 04:22:43;;;;;;;20.50;4.30;;;;;;;4.37;54.82;98336.27;67566;1281;1016058;-61
2023/03/05 04:25:45;;;;;;;21.00;4.50;;;;;;;4.12;55.46;98335.23;67543;1281;1016514;-60
2023/03/05 04:28:48;;;;;;;19.90;4.50;;;;;;;4.12;55.41;98332.11;67569;1281;1016460;-60
2023/03/05 04:31:50;;;;;;;22.60;5.30;;;;;;;4.41;54.45;98329.35;67598;1281;1016286;-59
2023/03/05 04:34:53;;;;;;;22.90;4.70;;;;;;;4.34;54.09;98327.73;67596;1281;1016504;-60
2023/03/05 04:37:55;;;;;;;21.00;5.10;;;;;;;4.28;54.38;98324.35;67546;1282;1016534;-59
2023/03/05 04:40:58;;;;;;;22.10;5.40;;;;;;;4.11;54.92;98326.98;67535;1281;1016219;-60
2023/03/05 04:44:00;;;;;;;22.60;5.20;;;;;;;3.95;55.68;98328.52;67620;1281;1016411;-60
2023/03/05 04:47:03;;;;;;;21.00;4.70;;;;;;;3.96;55.58;98329.85;67583;1282;1015989;-60
2023/03/05 04:50:05;;;;;;;21.20;4.70;;;;;;;3.96;55.37;98329.67;67549;1282;1016437;-60
2023/03/05 04:53:07;;;;;;;20.80;4.60;;;;;;;4.01;54.53;98331.75;67533;1282;1016370;-60
2023/03/05 04:56:10;;;;;;;25.00;5.40;;;;;;;4.17;53.70;98325.33;67593;1281;1016943;-59
2023/03/05 04:59:12;;;;;;;21.80;5.30;;;;;;;4.10;54.65;98323.55;67570;1281;1016423;-60
2023/03/05 05:02:15;;;;;;;21.50;5.20;;;;;;;4.13;54.79;98325.52;67565;1281;1016410;-60
2023/03/05 05:05:17;;;;;;;24.00;5.50;;;;;;;4.36;54.00;98320.88;67602;1282;1016523;-60
2023/03/05 05:08:20;;;;;;;24.20;5.50;;;;;;;4.28;54.05;98321.27;67545;1281;1016453;-61
2023/03/05 05:11:22;;;;;;;19.50;4.20;;;;;;;4.18;54.56;98320.28;67560;1282;1016365;-60
2023/03/05 05:14:24;;;;;;;21.20;4.10;;;;;;;4.24;53.79;98318.29;67565;1281;1016280;-60
2023/03/05 05:17:29;;;;;;;21.00;4.70;;;;;;;4.38;53.40;98310.77;67606;1281;1017337;-59
2023/03/05 05:20:32;;;;;;;23.60;4.50;;;;;;;4.42;53.63;98307.31;67555;1281;1016076;-61
2023/03/05 05:23:34;;;;;;;23.80;5.90;;;;;;;4.48;53.60;98306.51;67521;1281;1016079;-60
2023/03/05 05:26:37;;;;;;;23.60;5.80;;;;;;;4.52;53.62;98306.66;67597;1281;1016957;-61
2023/03/05 05:29:39;;;;;;;22.20;5.70;;;;;;;4.50;53.44;98305.07;67616;1281;1016421;-59
2023/03/05 05:32:41;;;;;;;24.50;6.00;;;;;;;4.25;53.77;98304.92;65014;1282;5371538;-59
2023/03/05 05:35:44;;;;;;;23.30;5.80;;;;;;;4.21;54.30;98306.83;67558;1281;1016505;-60
2023/03/05 05:38:46;;;;;;;22.30;4.80;;;;;;;4.31;53.69;98297.41;67524;1282;1016834;-60
2023/03/05 05:41:49;;;;;;;23.60;5.10;;;;;;;4.28;53.60;98294.05;67542;1282;1016287;-60
2023/03/05 05:44:51;;;;;;;25.60;5.00;;;;;;;4.37;53.21;98295.77;67602;1282;1016493;-59
2023/03/05 05:47:54;;;;;;;22.40;6.10;;;;;;;4.40;52.61;98298.39;67585;1282;1016396;-59
2023/03/05 05:50:56;;;;;;;26.40;6.40;;;;;;;4.30;52.63;98302.61;67559;1282;1016511;-59
2023/03/05 05:53:59;;;;;;;23.70;5.70;;;;;;;4.22;52.50;98304.88;67576;1281;1016472;-59
2023/03/05 05:57:01;;;;;;;23.20;5.80;;;;;;;4.32;52.15;98295.62;67602;1281;1016946;-60
2023/03/05 06:00:03;;;;;;;23.10;5.40;;;;;;;4.38;52.38;98296.37;67574;1281;1016468;-59
2023/03/05 06:03:06;;;;;;;24.30;5.70;;;;;;;4.29;51.99;98299.73;67560;1282;1016278;-59
2023/03/05 06:06:09;;;;;;;25.50;5.70;;;;;;;4.26;52.06;98301.23;67543;1282;1016621;-60
2023/03/05 06:09:11;;;;;;;26.10;5.10;;;;;;;4.25;51.63;98299.02;67572;1282;1016282;-59
2023/03/05 06:12:14;;;;;;;23.50;5.20;;;;;;;4.21;51.36;98299.08;67604;1282;1016325;-60
2023/03/05 06:15:17;;;;;;;22.00;5.80;;;;;;;4.31;51.80;98293.05;67571;1281;1016660;-60
2023/03/05 06:18:20;;;;;;;22.90;5.60;;;;;;;4.47;51.46;98292.52;67578;1282;1017156;-60
2023/03/05 06:21:22;;;;;;;21.70;5.20;;;;;;;4.60;51.38;98292.12;67587;1281;1016382;-60
2023/03/05 06:24:25;;;;;;;25.00;5.50;;;;;;;4.65;51.19;98289.27;67534;1282;1016242;-59
2023/03/05 06:27:27;;;;;;;22.50;4.80;;;;;;;4.65;51.48;98284.83;67573;1282;1018172;-60
2023/03/05 06:30:29;;;;;;;23.90;5.00;;;;;;;4.81;51.27;98277.66;67606;1282;1016332;-59
2023/03/05 06:33:32;;;;;;;22.00;5.20;;;;;;;4.94;51.68;98271.38;67590;1282;1016261;-60
2023/03/05 06:36:34;;;;;;;20.60;5.10;;;;;;;5.19;51.10;98272.59;67569;1281;1016222;-60
2023/03/05 06:39:37;;;;;;;20.90;5.00;;;;;;;5.33;50.83;98259.45;67541;1282;1016701;-60
2023/03/05 06:42:39;;;;;;;31.10;8.90;;;;;;;5.42;50.56;98246.70;67544;1282;1019184;-59
2023/03/05 06:45:42;;;;;;;29.30;9.60;;;;;;;5.53;50.01;98253.26;67594;1282;1016289;-60
2023/03/05 06:48:45;;;;;;;30.50;8.70;;;;;;;5.63;48.87;98250.17;67538;1282;1016161;-60
2023/03/05 06:51:47;;;;;;;23.20;6.80;;;;;;;5.67;49.19;98245.66;67546;1282;1016439;-60
2023/03/05 06:54:50;;;;;;;19.00;4.80;;;;;;;5.53;49.57;98246.33;67578;1282;1016224;-59
2023/03/05 06:57:52;;;;;;;21.10;4.30;;;;;;;5.31;49.29;98239.23;67569;1282;1016476;-59
2023/03/05 07:00:54;;;;;;;18.10;3.80;;;;;;;5.20;49.46;98252.25;67582;1282;1016479;-59
2023/03/05 07:03:59;;;;;;;24.30;5.20;;;;;;;5.08;49.34;98260.67;67553;1282;1016140;-59
2023/03/05 07:07:01;;;;;;;20.40;4.60;;;;;;;5.19;49.86;98258.90;67562;1282;1018787;-60
2023/03/05 07:10:06;;;;;;;21.90;5.40;;;;;;;5.30;49.17;98265.86;67588;1282;1016364;-59
2023/03/05 07:13:08;;;;;;;23.90;5.70;;;;;;;5.28;49.31;98263.52;67608;1282;1018186;-60
2023/03/05 07:16:11;;;;;;;30.60;7.10;;;;;;;5.05;49.97;98265.14;67538;1259;1016153;-60
2023/03/05 07:19:13;;;;;;;19.90;4.80;;;;;;;4.94;50.74;98262.19;67578;1282;1016297;-60
2023/03/05 07:22:16;;;;;;;21.60;5.50;;;;;;;4.90;50.12;98269.45;67591;1282;1016434;-59
2023/03/05 07:25:20;;;;;;;21.10;6.60;;;;;;;5.00;50.83;98260.86;67603;1282;1016334;-60
2023/03/05 07:28:22;;;;;;;21.10;4.90;;;;;;;5.05;50.81;98266.86;67571;1282;1016527;-59
2023/03/05 07:31:29;;;;;;;20.90;4.10;;;;;;;4.84;50.76;98262.27;67535;1281;1016355;-59
2023/03/05 07:34:32;;;;;;;23.20;5.30;;;;;;;4.88;51.08;98271.80;67578;1282;1015989;-60
2023/03/05 07:37:34;;;;;;;19.40;4.70;;;;;;;4.92;50.89;98263.30;67605;1282;1016547;-60
2023/03/05 07:40:37;;;;;;;18.70;4.50;;;;;;;4.90;51.27;98261.30;67583;1282;1016157;-60
2023/03/05 07:43:39;;;;;;;19.10;4.60;;;;;;;4.83;51.59;98264.94;67537;1282;1016324;-60
2023/03/05 07:46:42;;;;;;;19.30;4.00;;;;;;;4.75;51.59;98260.27;67563;1282;1016267;-59
2023/03/05 07:49:45;;;;;;;16.40;4.10;;;;;;;4.78;51.93;98261.17;67594;1282;1016205;-59
2023/03/05 07:52:47;;;;;;;16.10;4.10;;;;;;;4.89;52.78;98254.45;67558;1282;1016437;-60
2023/03/05 07:55:50;;;;;;;20.90;3.70;;;;;;;4.91;52.89;98252.59;67547;1282;1016298;-59
2023/03/05 07:58:52;;;;;;;;;;;;;;;4.86;53.00;98259.57;67603;1282;1016443;-59
2023/03/05 08:01:55;;;;;;;24.50;5.80;;;;;;;4.84;53.30;98251.05;67546;1282;1016409;-60
2023/03/05 08:04:57;;;;;;;21.80;4.80;;;;;;;5.03;53.06;98248.42;67534;1282;1018354;-60
2023/03/05 08:08:00;;;;;;;21.50;5.80;;;;;;;5.06;53.70;98249.99;67566;1282;1016331;-60
2023/03/05 08:11:02;;;;;;;23.80;6.50;;;;;;;5.32;53.22;98240.78;67594;1282;1016449;-59
2023/03/05 08:14:04;;;;;;;24.20;6.40;;;;;;;5.45;52.52;98234.56;67590;1282;1016314;-60
2023/03/05 08:17:07;;;;;;;23.20;5.30;;;;;;;5.50;52.55;98231.05;67538;1282;1016414;-59
2023/03/05 08:20:10;;;;;;;24.50;6.30;;;;;;;5.63;52.75;98225.05;67571;1282;1016444;-59
2023/03/05 08:23:12;;;;;;;21.60;4.50;;;;;;;5.72;52.63;98223.69;67575;1282;1016511;-60
2023/03/05 08:26:14;;;;;;;20.60;5.00;;;;;;;5.74;52.13;98223.59;67566;1282;1016093;-60
2023/03/05 08:29:17;;;;;;;23.50;5.90;;;;;;;5.83;52.88;98216.73;67520;1281;1016493;-59
2023/03/05 08:32:20;;;;;;;19.00;4.50;;;;;;;5.96;52.20;98217.13;67521;1282;1016212;-59
2023/03/05 08:35:22;;;;;;;26.00;6.70;;;;;;;5.93;52.23;98214.16;67594;1282;1018620;-60
2023/03/05 08:38:24;;;;;;;25.90;6.60;;;;;;;6.05;52.90;98209.58;67598;1282;1016600;-59
2023/03/05 08:41:27;;;;;;;22.60;5.20;;;;;;;6.14;52.85;98202.66;67567;1281;1015763;-60
2023/03/05 08:44:29;;;;;;;19.70;4.90;;;;;;;6.30;52.41;98204.11;67534;1281;1016515;-60
2023/03/05 08:47:32;;;;;;;27.70;7.30;;;;;;;6.36;51.54;98203.42;67574;1282;1016247;-60
2023/03/05 08:50:34;;;;;;;28.40;9.20;;;;;;;6.40;51.77;98201.98;67608;1282;1016244;-60
2023/03/05 08:53:37;;;;;;;19.60;4.60;;;;;;;6.27;52.15;98200.60;67550;1282;1016126;-59
2023/03/05 08:56:40;;;;;;;17.20;3.90;;;;;;;6.27;51.65;98194.37;67565;1282;1016286;-60
2023/03/05 08:59:45;;;;;;;19.00;4.00;;;;;;;6.31;52.00;98196.59;67610;1282;1016493;-60
2023/03/05 09:02:47;;;;;;;23.10;5.10;;;;;;;6.22;52.19;98191.16;67557;1282;1016602;-59
2023/03/05 09:05:50;;;;;;;14.80;3.80;;;;;;;6.16;52.70;98195.80;67561;1282;1016674;-60
2023/03/05 09:08:52;;;;;;;24.00;6.10;;;;;;;6.17;52.89;98191.60;67576;1281;1016379;-59
2023/03/05 09:11:55;;;;;;;;;;;;;;;6.31;52.01;98189.98;67600;1282;1016278;-60
2023/03/05 09:14:57;;;;;;;19.00;4.50;;;;;;;6.30;52.24;98183.42;67535;1282;1016065;-60
2023/03/05 09:18:00;;;;;;;;;;;;;;;6.37;52.27;98180.48;67604;1282;1019735;-60
2023/03/05 09:21:02;;;;;;;23.80;5.40;;;;;;;6.38;52.23;98182.48;67615;1281;1016444;-60
2023/03/05 09:24:05;;;;;;;;;;;;;;;6.52;52.08;98179.62;67580;1282;1016415;-59
2023/03/05 09:27:08;;;;;;;19.70;4.50;;;;;;;6.59;51.44;98171.45;67546;1282;1018907;-59
2023/03/05 09:30:10;;;;;;;22.00;5.70;;;;;;;6.65;51.18;98166.79;67623;1282;1016006;-60
2023/03/05 09:33:12;;;;;;;19.80;4.60;;;;;;;6.70;51.78;98163.38;67610;1281;1016503;-60
2023/03/05 09:36:17;;;;;;;17.90;4.30;;;;;;;6.85;51.42;98171.88;67565;1281;1016448;-59
2023/03/05 09:39:20;;;;;;;22.70;5.90;;;;;;;6.68;51.03;98174.91;67547;1282;1016458;-60
2023/03/05 09:42:23;;;;;;;27.60;7.20;;;;;;;6.60;51.23;98164.42;67591;1282;1016447;-60
2023/03/05 09:45:25;;;;;;;25.50;5.70;;;;;;;6.68;52.11;98161.19;67543;1282;1016453;-60
2023/03/05 09:48:28;;;;;;;26.50;6.80;;;;;;;6.68;52.01;98160.69;67551;1282;1016481;-60
2023/03/05 09:51:30;;;;;;;35.20;8.70;;;;;;;6.76;52.12;98150.70;67544;1282;1016407;-60
2023/03/05 09:54:32;;;;;;;24.20;6.10;;;;;;;6.97;52.23;98142.57;67616;1282;1016505;-59
2023/03/05 09:57:35;;;;;;;22.60;5.20;;;;;;;7.16;51.26;98142.71;67606;1282;1016476;-60
2023/03/05 10:00:37;;;;;;;22.40;5.80;;;;;;;7.33;51.65;98139.11;67546;1282;1016428;-60
2023/03/05 10:03:40;;;;;;;22.90;5.80;;;;;;;7.38;50.61;98137.25;67517;1282;1015758;-60
2023/03/05 10:06:42;;;;;;;21.10;5.50;;;;;;;7.14;51.20;98141.61;67592;1281;1018551;-59
2023/03/05 10:09:45;;;;;;;20.00;4.70;;;;;;;7.00;52.03;98144.15;67576;1282;1016334;-60
2023/03/05 10:12:47;;;;;;;25.70;5.80;;;;;;;7.02;53.23;98133.43;67592;1282;1016484;-60
2023/03/05 10:15:50;;;;;;;22.50;5.20;;;;;;;6.88;54.76;98138.56;67560;1282;1016503;-60
2023/03/05 10:18:53;;;;;;;20.80;5.30;;;;;;;6.56;56.66;98145.86;67582;1282;1016383;-59
2023/03/05 10:21:55;;;;;;;23.00;6.30;;;;;;;6.25;58.52;98148.46;67548;1282;1016070;-59
2023/03/05 10:24:58;;;;;;;25.70;5.90;;;;;;;6.07;60.31;98144.55;67548;1282;1016161;-60
2023/03/05 10:28:04;;;;;;;20.50;4.80;;;;;;;6.06;60.53;98138.48;67589;1282;1016400;-60
2023/03/05 10:31:07;;;;;;;19.90;5.20;;;;;;;6.04;60.92;98134.96;67605;1282;1018830;-59
2023/03/05 10:34:09;;;;;;;;;;;;;;;6.05;60.74;98128.83;67571;1282;1015719;-59
2023/03/05 10:37:12;;;;;;;21.40;6.80;;;;;;;6.04;61.31;98123.17;67539;1261;1016267;-60
2023/03/05 10:40:15;;;;;;;29.40;8.80;;;;;;;6.17;60.84;98113.80;67598;1282;1016415;-59
2023/03/05 10:43:17;;;;;;;28.10;8.40;;;;;;;6.18;61.39;98116.34;67597;1282;1018860;-59
2023/03/05 10:46:20;;;;;;;26.60;8.30;;;;;;;6.24;60.88;98110.14;67596;1281;1016370;-60
2023/03/05 10:49:22;;;;;;;27.70;8.70;;;;;;;6.19;61.25;98101.52;67548;1282;1016418;-60
2023/03/05 10:52:25;;;;;;;33.70;10.50;;;;;;;6.31;61.08;98098.42;67581;1282;1016306;-60
2023/03/05 10:55:27;;;;;;;35.00;11.70;;;;;;;6.41;60.46;98095.29;67553;1282;1016077;-60
2023/03/05 10:58:29;;;;;;;44.40;14.90;;;;;;;6.55;60.20;98091.24;67605;1282;1018725;-60
2023/03/05 11:01:32;;;;;;;42.50;16.30;;;;;;;6.45;60.75;98090.95;67559;1282;1016427;-60
2023/03/05 11:04:36;;;;;;;32.30;10.10;;;;;;;6.62;60.96;98079.37;67523;1282;1016493;-60
2023/03/05 11:07:38;;;;;;;31.30;9.30;;;;;;;6.88;60.39;98072.50;67544;1282;1016156;-60
2023/03/05 11:10:41;;;;;;;28.20;10.10;;;;;;;6.96;60.41;98069.27;67560;1282;1016513;-60
2023/03/05 11:13:43;;;;;;;33.90;12.40;;;;;;;7.04;60.30;98067.20;67605;1282;1016507;-59
2023/03/05 11:16:46;;;;;;;34.60;12.60;;;;;;;6.93;61.03;98068.70;67585;1282;1016614;-60
2023/03/05 11:19:49;;;;;;;33.50;13.00;;;;;;;6.94;61.16;98066.77;67531;1282;1016495;-60
2023/03/05 11:22:51;;;;;;;;;;;;;;;7.03;60.79;98066.96;67567;1282;1016368;-59
2023/03/05 11:25:54;;;;;;;30.50;12.30;;;;;;;6.88;61.18;98066.56;67519;1282;1016376;-60
2023/03/05 11:28:57;;;;;;;;;;;;;;;6.65;61.92;98061.14;67539;1282;1016366;-59
2023/03/05 11:31:59;;;;;;;33.10;12.30;;;;;;;6.53;62.05;98055.38;67578;1282;1016237;-60
2023/03/05 11:35:02;;;;;;;35.70;12.10;;;;;;;6.50;62.30;98056.04;67551;1282;1016462;-59
2023/03/05 11:38:04;;;;;;;30.60;11.20;;;;;;;6.74;62.13;98049.84;67521;1282;1016410;-60
2023/03/05 11:41:07;;;;;;;31.60;12.10;;;;;;;6.98;60.47;98053.63;67526;1282;1016369;-60
2023/03/05 11:44:10;;;;;;;;;;;;;;;7.14;59.63;98043.02;67577;1282;1017749;-60
2023/03/05 11:47:12;;;;;;;31.30;10.40;;;;;;;7.18;59.63;98038.05;67545;1282;1016382;-59
2023/03/05 11:50:14;;;;;;;27.10;10.90;;;;;;;7.19;59.66;98028.81;67496;1282;1016199;-59
2023/03/05 11:53:17;;;;;;;31.60;11.50;;;;;;;7.15;59.69;98026.41;67544;1282;1016497;-60
2023/03/05 11:56:19;;;;;;;26.90;8.60;;;;;;;6.91;58.59;98035.65;67582;1282;1016326;-59
2023/03/05 11:59:22;;;;;;;30.30;9.50;;;;;;;6.48;60.01;98031.35;67568;1282;1018030;-59
2023/03/05 12:02:27;;;;;;;27.60;8.90;;;;;;;6.40;60.13;98032.98;67547;1281;1016368;-59
2023/03/05 12:05:29;;;;;;;28.90;9.60;;;;;;;6.23;61.24;98027.58;67562;1282;1016938;-60
2023/03/05 12:08:31;;;;;;;27.70;9.90;;;;;;;6.26;61.25;98019.88;67572;1282;1016526;-60
2023/03/05 12:11:34;;;;;;;29.50;9.60;;;;;;;6.44;61.01;98020.96;67619;1282;1017091;-60
2023/03/05 12:14:37;;;;;;;27.70;8.70;;;;;;;6.53;60.48;98014.02;67554;1281;1016440;-60
2023/03/05 12:17:39;;;;;;;29.80;9.80;;;;;;;6.46;60.68;98012.02;67558;1282;1017054;-60
2023/03/05 12:20:50;;;;;;;31.10;9.60;;;;;;;6.52;60.26;98019.34;67547;1282;1016306;-59
2023/03/05 12:23:52;;;;;;;28.10;8.70;;;;;;;6.41;59.96;98019.24;67598;1282;1016447;-59
2023/03/05 12:26:57;;;;;;;25.00;7.80;;;;;;;6.44;59.51;98015.95;67595;1281;1016151;-59
2023/03/05 12:30:01;;;;;;;26.90;8.20;;;;;;;6.40;58.95;98017.39;67569;1282;1017611;-59
2023/03/05 12:33:04;;;;;;;25.80;7.10;;;;;;;6.26;57.64;98019.56;67568;1282;1016254;-59
2023/03/05 12:36:06;;;;;;;22.80;5.90;;;;;;;6.17;58.04;98014.36;67578;1282;1016519;-59
2023/03/05 12:39:09;;;;;;;27.20;7.20;;;;;;;6.11;58.18;98017.27;67582;1282;1016015;-60
2023/03/05 12:42:11;;;;;;;25.80;7.30;;;;;;;6.19;58.31;98007.06;67602;1282;1016203;-60
2023/03/05 12:45:15;;;;;;;26.80;7.70;;;;;;;6.32;57.88;98010.90;67573;1281;1016407;-59
2023/03/05 12:48:17;;;;;;;24.40;7.20;;;;;;;6.47;56.67;98004.13;67585;1282;1016934;-60
2023/03/05 12:51:20;;;;;;;26.70;6.50;;;;;;;6.41;56.18;98005.85;67528;1281;1016528;-59
2023/03/05 12:54:22;;;;;;;26.00;6.50;;;;;;;6.37;56.50;97998.98;67544;1281;1016721;-60
2023/03/05 12:57:28;;;;;;;23.50;5.20;;;;;;;6.13;57.00;98016.61;67581;1281;1016310;-60
2023/03/05 13:00:32;;;;;;;17.10;4.30;;;;;;;5.71;61.72;98033.28;67538;1282;1016163;-60
2023/03/05 13:03:35;;;;;;;22.10;5.70;;;;;;;5.73;61.78;98014.95;67554;1282;1016526;-59
2023/03/05 13:06:37;;;;;;;18.80;3.80;;;;;;;5.80;60.04;98009.91;67582;1281;1016536;-60
2023/03/05 13:09:39;;;;;;;18.20;4.10;;;;;;;5.67;59.74;98018.27;67576;1281;1016471;-59
2023/03/05 13:12:42;;;;;;;19.00;4.60;;;;;;;5.76;59.28;98026.79;67602;1282;1016257;-59
2023/03/05 13:15:44;;;;;;;18.10;4.30;;;;;;;5.96;59.06;98020.48;67522;1281;1015908;-60
2023/03/05 13:18:47;;;;;;;20.90;4.50;;;;;;;6.25;58.34;98011.44;67554;1282;1016223;-60
2023/03/05 13:21:49;;;;;;;19.50;4.20;;;;;;;6.69;57.04;98007.92;67577;1282;1016337;-59
2023/03/05 13:24:52;;;;;;;19.30;4.00;;;;;;;7.02;55.90;98003.54;67560;1282;1017012;-60
2023/03/05 13:27:54;;;;;;;;;;;;;;;7.04;55.35;98005.31;67530;1282;1016295;-60
2023/03/05 13:30:57;;;;;;;20.00;3.90;;;;;;;7.28;54.88;97999.20;67513;1282;1016483;-60
2023/03/05 13:33:59;;;;;;;15.90;3.90;;;;;;;7.34;53.99;98003.94;67585;1282;1016916;-60
2023/03/05 13:37:03;;;;;;;17.60;4.50;;;;;;;7.32;53.40;98000.20;67565;1282;1017103;-60
